Time;durP1;ratioP1;P1;durP2;ratioP2;P2;SDS_P1;SDS_P2;PMS_P1;PMS_P2;Temp;Humidity;BMP_temperature;BMP_pressure;BME280_temperature;BME280_humidity;BME280_pressure;Samples;Min_cycle;Max_cycle;Signal;HPM_P1;HPM_P2
2022/01/07 00:01:38;;;;;;;75.68;29.13;;;3.00;99.90;;;;;;5032825;28;20029;-68
2022/01/07 00:04:04;;;;;;;80.90;29.10;;;3.00;99.90;;;;;;5032885;28;20067;-68
2022/01/07 00:06:29;;;;;;;76.78;29.33;;;3.00;99.90;;;;;;5032908;28;20500;-69
2022/01/07 00:08:55;;;;;;;69.65;28.17;;;3.00;99.90;;;;;;5032614;28;20034;-69
2022/01/07 00:11:21;;;;;;;90.13;30.70;;;2.90;99.90;;;;;;5033066;28;20120;-68
2022/01/07 00:13:47;;;;;;;80.03;30.08;;;3.00;99.90;;;;;;5031557;28;20025;-68
2022/01/07 00:16:13;;;;;;;81.05;29.60;;;3.00;99.90;;;;;;5033049;28;20026;-69
2022/01/07 00:18:41;;;;;;;73.82;31.35;;;3.00;99.90;;;;;;5032861;28;20399;-68
2022/01/07 00:21:07;;;;;;;80.68;28.05;;;3.00;99.90;;;;;;5031369;28;20116;-69
2022/01/07 00:23:33;;;;;;;91.25;29.20;;;3.00;99.90;;;;;;5032774;28;20126;-69
2022/01/07 00:25:58;;;;;;;69.90;29.80;;;2.90;99.90;;;;;;5032756;28;20029;-69
2022/01/07 00:28:24;;;;;;;72.10;29.88;;;2.90;99.90;;;;;;5033121;28;20600;-69
2022/01/07 00:30:49;;;;;;;82.25;32.80;;;2.90;99.90;;;;;;5032561;28;20488;-69
2022/01/07 00:33:15;;;;;;;79.53;31.60;;;2.90;99.90;;;;;;5033205;28;20024;-69
2022/01/07 00:35:41;;;;;;;84.65;33.90;;;2.90;99.90;;;;;;5036594;28;20470;-69
2022/01/07 00:38:07;;;;;;;91.78;33.17;;;2.90;99.90;;;;;;5036249;28;20025;-68
2022/01/07 00:40:32;;;;;;;90.90;33.75;;;2.90;99.90;;;;;;5036138;28;20033;-68
2022/01/07 00:42:58;;;;;;;82.28;33.50;;;2.90;99.90;;;;;;5036390;28;20109;-69
2022/01/07 00:45:24;;;;;;;92.07;33.72;;;2.90;99.90;;;;;;5036167;28;20029;-68
2022/01/07 00:47:52;;;;;;;87.22;35.47;;;3.00;99.90;;;;;;5035984;28;20037;-69
2022/01/07 00:50:18;;;;;;;90.88;35.90;;;3.00;99.90;;;;;;5035909;28;20095;-69
2022/01/07 00:52:44;;;;;;;96.82;35.67;;;2.90;99.90;;;;;;5036060;28;20056;-69
2022/01/07 00:55:11;;;;;;;95.55;35.00;;;2.90;99.90;;;;;;5036218;28;20064;-68
2022/01/07 00:57:37;;;;;;;83.57;37.08;;;2.90;99.90;;;;;;5034702;28;20112;-69
2022/01/07 01:00:07;;;;;;;96.30;37.58;;;3.00;99.90;;;;;;5036027;28;20544;-68
2022/01/07 01:02:32;;;;;;;74.60;34.95;;;2.90;99.90;;;;;;5035731;28;20489;-68
2022/01/07 01:04:58;;;;;;;81.65;35.75;;;2.90;99.90;;;;;;5035784;28;20033;-69
2022/01/07 01:07:23;;;;;;;89.28;37.78;;;2.90;99.90;;;;;;5035608;28;20109;-69
2022/01/07 01:09:49;;;;;;;88.63;36.60;;;2.90;99.90;;;;;;5035670;28;20021;-68
2022/01/07 01:12:14;;;;;;;83.97;38.38;;;2.90;99.90;;;;;;5035613;28;20497;-68
2022/01/07 01:14:40;;;;;;;98.90;36.70;;;2.90;99.90;;;;;;5035621;28;20028;-69
2022/01/07 01:17:07;;;;;;;77.90;35.40;;;2.90;99.90;;;;;;5035586;28;20057;-69
2022/01/07 01:19:33;;;;;;;80.57;34.35;;;2.90;99.90;;;;;;5035356;28;20451;-69
2022/01/07 01:21:58;;;;;;;85.45;36.13;;;3.00;99.90;;;;;;5034888;28;20093;-69
2022/01/07 01:24:24;;;;;;;78.38;34.72;;;2.90;99.90;;;;;;5035492;28;20053;-69
2022/01/07 01:26:50;;;;;;;90.15;35.85;;;2.90;99.90;;;;;;5034839;28;20018;-69
2022/01/07 01:29:16;;;;;;;86.00;32.95;;;2.90;99.90;;;;;;5035343;28;20104;-69
2022/01/07 01:31:41;;;;;;;85.90;35.25;;;2.90;99.90;;;;;;5035495;28;20500;-69
2022/01/07 01:34:07;;;;;;;79.07;37.55;;;2.90;99.90;;;;;;5035256;28;20477;-69
2022/01/07 01:36:33;;;;;;;82.47;34.05;;;2.90;99.90;;;;;;5035235;28;20477;-68
2022/01/07 01:38:59;;;;;;;73.75;33.65;;;2.90;99.90;;;;;;5035124;28;20636;-68
2022/01/07 01:41:25;;;;;;;79.90;32.60;;;2.90;99.90;;;;;;5033813;28;20033;-69
2022/01/07 01:43:51;;;;;;;68.40;31.30;;;2.90;99.90;;;;;;5035131;28;20049;-69
2022/01/07 01:46:17;;;;;;;76.90;32.45;;;2.90;99.90;;;;;;5034446;28;20115;-69
2022/01/07 01:48:43;;;;;;;75.72;31.55;;;2.90;99.90;;;;;;5034860;28;20392;-69
2022/01/07 01:51:09;;;;;;;72.40;32.47;;;2.90;99.90;;;;;;5034880;28;20147;-69
2022/01/07 01:53:35;;;;;;;83.53;31.23;;;2.80;99.90;;;;;;5034868;28;20105;-69
2022/01/07 01:56:00;;;;;;;90.88;31.58;;;2.90;99.90;;;;;;5034907;28;20017;-69
2022/01/07 01:58:26;;;;;;;70.72;29.02;;;2.90;99.90;;;;;;5034811;28;20099;-69
2022/01/07 02:00:52;;;;;;;83.63;29.83;;;2.90;99.90;;;;;;5034647;28;20031;-69
2022/01/07 02:03:17;;;;;;;74.32;29.00;;;2.90;99.90;;;;;;5034726;28;20021;-69
2022/01/07 02:05:45;;;;;;;80.82;30.95;;;2.90;99.90;;;;;;5034637;28;20072;-69
2022/01/07 02:08:11;;;;;;;78.75;31.50;;;2.90;99.90;;;;;;5034642;28;20568;-69
2022/01/07 02:10:37;;;;;;;85.35;31.98;;;3.00;99.90;;;;;;5034534;28;20060;-68
2022/01/07 02:13:03;;;;;;;73.38;31.00;;;2.90;99.90;;;;;;5034494;28;20031;-69
2022/01/07 02:15:29;;;;;;;65.28;29.85;;;2.90;99.90;;;;;;5034687;28;20096;-69
2022/01/07 02:17:54;;;;;;;82.57;33.17;;;2.90;99.90;;;;;;5035203;28;20438;-69
2022/01/07 02:20:25;;;;;;;96.78;31.92;;;2.90;99.90;;;;;;5034012;28;20061;-69
2022/01/07 02:22:51;;;;;;;72.07;30.50;;;2.90;99.90;;;;;;5034162;28;20049;-69
2022/01/07 02:25:17;;;;;;;77.43;31.98;;;2.90;99.90;;;;;;5034299;28;20026;-69
2022/01/07 02:27:44;;;;;;;76.93;31.73;;;2.90;99.90;;;;;;5034142;28;20036;-69
2022/01/07 02:30:19;;;;;;;91.72;33.45;;;2.80;99.90;;;;;;5034100;28;20091;-69
2022/01/07 02:32:45;;;;;;;72.80;30.88;;;2.80;99.90;;;;;;5034183;28;20053;-69
2022/01/07 02:35:11;;;;;;;89.70;32.15;;;2.80;99.90;;;;;;5033637;28;20021;-69
2022/01/07 02:37:37;;;;;;;77.38;31.67;;;2.80;99.90;;;;;;5034289;28;20022;-69
2022/01/07 02:40:05;;;;;;;88.10;34.50;;;2.80;99.90;;;;;;5031773;28;20094;-69
2022/01/07 02:42:30;;;;;;;89.05;33.92;;;2.80;99.90;;;;;;5034001;28;20025;-69
2022/01/07 02:44:56;;;;;;;93.07;34.17;;;2.80;99.90;;;;;;5033923;28;20033;-69
2022/01/07 02:47:22;;;;;;;91.43;33.70;;;2.80;99.90;;;;;;5032518;28;20411;-69
2022/01/07 02:49:48;;;;;;;73.72;33.08;;;2.80;99.90;;;;;;5033735;28;20097;-69
2022/01/07 02:52:14;;;;;;;98.38;35.42;;;2.80;99.90;;;;;;5033802;28;20388;-69
2022/01/07 02:54:40;;;;;;;89.07;33.05;;;2.80;99.90;;;;;;5033777;28;20026;-69
2022/01/07 02:57:06;;;;;;;73.78;32.42;;;2.80;99.90;;;;;;5032785;28;20083;-69
2022/01/07 02:59:32;;;;;;;93.35;33.30;;;2.70;99.90;;;;;;5032358;28;20112;-69
2022/01/07 03:01:57;;;;;;;94.82;33.75;;;2.70;99.90;;;;;;5033609;28;20036;-69
2022/01/07 03:04:24;;;;;;;80.25;32.92;;;2.70;99.90;;;;;;5033588;28;20033;-69
2022/01/07 03:06:50;;;;;;;86.88;33.58;;;2.70;99.90;;;;;;5034105;28;20021;-69
2022/01/07 03:09:15;;;;;;;95.30;32.40;;;2.70;99.90;;;;;;5033496;28;20036;-70
2022/01/07 03:11:41;;;;;;;109.15;31.88;;;2.70;99.90;;;;;;5033395;28;20033;-69
2022/01/07 03:14:07;;;;;;;80.68;32.10;;;2.70;99.90;;;;;;5033442;28;20481;-69
2022/01/07 03:16:33;;;;;;;83.57;31.08;;;2.60;99.90;;;;;;5033657;28;20033;-69
2022/01/07 03:18:58;;;;;;;80.25;30.92;;;2.60;99.90;;;;;;5033657;28;20018;-69
2022/01/07 03:21:24;;;;;;;91.45;32.00;;;2.60;99.90;;;;;;5033135;28;20068;-69
2022/01/07 03:23:49;;;;;;;101.20;29.80;;;2.60;99.90;;;;;;5033361;28;20026;-69
2022/01/07 03:26:15;;;;;;;82.72;29.80;;;2.50;99.90;;;;;;5032991;28;20021;-70
2022/01/07 03:28:40;;;;;;;81.07;29.38;;;2.50;99.90;;;;;;5032944;28;20064;-71
2022/01/07 03:31:07;;;;;;;67.75;29.60;;;2.50;99.90;;;;;;5033243;28;20029;-71
2022/01/07 03:33:33;;;;;;;80.63;31.13;;;2.40;99.90;;;;;;5033225;28;20091;-71
2022/01/07 03:35:58;;;;;;;87.45;29.95;;;2.40;99.90;;;;;;5033191;28;20025;-70
2022/01/07 03:38:24;;;;;;;82.15;31.33;;;2.40;99.90;;;;;;5033123;28;20036;-69
2022/01/07 03:40:49;;;;;;;86.25;30.98;;;2.40;99.90;;;;;;5033148;28;20050;-69
2022/01/07 03:43:15;;;;;;;87.65;30.25;;;2.40;99.90;;;;;;5033342;28;20032;-69
2022/01/07 03:45:41;;;;;;;77.28;28.90;;;2.40;99.90;;;;;;5033072;28;20029;-70
2022/01/07 03:48:07;;;;;;;85.15;30.27;;;2.30;99.90;;;;;;5031689;28;20552;-70
2022/01/07 03:50:33;;;;;;;72.65;29.83;;;2.30;99.90;;;;;;5033002;28;20037;-70
2022/01/07 03:53:00;;;;;;;66.68;27.75;;;2.20;99.90;;;;;;5032983;28;20512;-71
2022/01/07 03:55:29;;;;;;;67.22;28.95;;;2.20;99.90;;;;;;5031724;28;20546;-71
2022/01/07 03:57:55;;;;;;;68.25;25.63;;;2.20;99.90;;;;;;5032996;28;20544;-70
2022/01/07 04:00:25;;;;;;;62.25;26.73;;;2.20;99.90;;;;;;5031597;28;20033;-70
2022/01/07 04:02:52;;;;;;;61.85;26.48;;;2.20;99.90;;;;;;5033066;28;20036;-71
2022/01/07 04:05:21;;;;;;;64.18;27.38;;;2.20;99.90;;;;;;5032611;28;20485;-71
2022/01/07 04:07:46;;;;;;;69.95;28.30;;;2.20;99.90;;;;;;5032799;28;20080;-71
2022/01/07 04:10:12;;;;;;;71.78;28.90;;;2.20;99.90;;;;;;5036291;28;20568;-71
2022/01/07 04:12:37;;;;;;;71.80;28.08;;;2.10;99.90;;;;;;5036800;28;20025;-71
2022/01/07 04:15:12;;;;;;;74.65;28.63;;;2.10;99.90;;;;;;5036716;28;20481;-71
2022/01/07 04:17:46;;;;;;;73.22;29.17;;;2.10;99.90;;;;;;5036743;28;20036;-71
2022/01/07 04:20:13;;;;;;;;;;;2.00;99.90;;;;;;5036980;28;20060;-71
2022/01/07 04:22:38;;;;;;;72.45;29.27;;;2.00;99.90;;;;;;5036855;28;20417;-71
2022/01/07 04:25:08;;;;;;;75.10;28.67;;;2.00;99.90;;;;;;5036792;28;20108;-71
2022/01/07 04:27:33;;;;;;;68.57;28.70;;;2.00;99.90;;;;;;5036418;28;20064;-71
2022/01/07 04:29:59;;;;;;;74.63;29.60;;;2.00;99.90;;;;;;5036401;28;20033;-71
2022/01/07 04:32:25;;;;;;;65.30;27.45;;;2.00;99.90;;;;;;5036510;28;20053;-71
2022/01/07 04:34:51;;;;;;;55.95;25.33;;;2.00;99.90;;;;;;5036939;28;20413;-71
2022/01/07 04:37:17;;;;;;;59.80;27.02;;;2.00;99.90;;;;;;5036392;28;20068;-71
2022/01/07 04:39:42;;;;;;;53.92;27.25;;;2.00;99.90;;;;;;5036257;28;20022;-71
2022/01/07 04:42:08;;;;;;;68.43;27.10;;;2.00;99.90;;;;;;5036466;28;20519;-71
2022/01/07 04:44:38;;;;;;;67.10;28.27;;;2.00;99.90;;;;;;5036186;28;20028;-71
2022/01/07 04:47:04;;;;;;;61.42;28.33;;;2.00;99.90;;;;;;5036097;28;20029;-71
2022/01/07 04:49:30;;;;;;;65.28;28.73;;;1.90;99.90;;;;;;5035993;28;20496;-71
2022/01/07 04:51:55;;;;;;;65.40;27.90;;;1.90;99.90;;;;;;5036038;28;20444;-71
2022/01/07 04:54:21;;;;;;;59.60;27.25;;;1.90;99.90;;;;;;5035982;28;20491;-71
2022/01/07 04:56:46;;;;;;;64.10;27.38;;;1.90;99.90;;;;;;5035955;28;20029;-69
2022/01/07 04:59:12;;;;;;;58.63;27.70;;;1.80;99.90;;;;;;5035868;28;20131;-70
2022/01/07 05:01:37;;;;;;;55.92;26.90;;;1.80;99.90;;;;;;5035785;28;20400;-70
2022/01/07 05:04:03;;;;;;;62.45;28.23;;;1.80;99.90;;;;;;5035877;28;20495;-71
2022/01/07 05:06:44;;;;;;;70.35;30.30;;;1.80;99.90;;;;;;5035722;28;20045;-71
2022/01/07 05:09:16;;;;;;;73.82;31.65;;;1.80;99.90;;;;;;5034440;28;20025;-71
2022/01/07 05:11:47;;;;;;;68.82;32.65;;;1.80;99.90;;;;;;5035717;28;20026;-71
2022/01/07 05:14:13;;;;;;;81.90;35.63;;;1.80;99.90;;;;;;5035591;28;20076;-71
2022/01/07 05:16:39;;;;;;;68.07;33.10;;;1.80;99.90;;;;;;5035792;28;20128;-71
2022/01/07 05:19:05;;;;;;;68.13;31.50;;;1.80;99.90;;;;;;5035608;28;20025;-71
2022/01/07 05:21:30;;;;;;;75.70;32.83;;;1.90;99.90;;;;;;5034433;28;20035;-71
2022/01/07 05:23:56;;;;;;;64.43;30.40;;;1.80;99.90;;;;;;5034186;28;20025;-71
2022/01/07 05:26:22;;;;;;;60.25;30.08;;;1.80;99.90;;;;;;5035533;28;20080;-71
2022/01/07 05:28:50;;;;;;;68.20;30.77;;;1.90;99.90;;;;;;5035042;28;20032;-71
2022/01/07 05:31:16;;;;;;;67.25;31.63;;;1.90;99.90;;;;;;5035300;28;20515;-71
2022/01/07 05:33:42;;;;;;;70.45;31.65;;;1.90;99.90;;;;;;5034862;28;20025;-71
2022/01/07 05:36:07;;;;;;;67.93;31.42;;;1.90;99.90;;;;;;5035311;28;20079;-71
2022/01/07 05:38:33;;;;;;;66.38;30.52;;;1.90;99.90;;;;;;5035215;28;20034;-71
2022/01/07 05:40:58;;;;;;;60.88;29.85;;;1.90;99.90;;;;;;5035383;28;20426;-71
2022/01/07 05:43:24;;;;;;;61.33;30.20;;;2.00;99.90;;;;;;5035074;28;20025;-71
2022/01/07 05:45:49;;;;;;;64.32;31.10;;;2.00;99.90;;;;;;5035382;28;20025;-71
2022/01/07 05:48:15;;;;;;;69.90;30.92;;;2.00;99.90;;;;;;5035227;28;20029;-71
2022/01/07 05:50:41;;;;;;;70.88;30.42;;;2.00;99.90;;;;;;5034874;28;20021;-71
2022/01/07 05:53:06;;;;;;;68.65;30.50;;;2.00;99.90;;;;;;5034587;28;20018;-71
2022/01/07 05:55:32;;;;;;;66.90;31.88;;;2.00;99.90;;;;;;5034862;28;20036;-71
2022/01/07 05:57:57;;;;;;;67.28;30.45;;;2.00;99.90;;;;;;5034863;28;20068;-71
2022/01/07 06:00:24;;;;;;;72.45;32.70;;;2.00;99.90;;;;;;5034692;28;20516;-71
2022/01/07 06:02:49;;;;;;;80.18;31.42;;;2.00;99.90;;;;;;5033425;28;20396;-71
2022/01/07 06:05:15;;;;;;;64.95;30.00;;;2.00;99.90;;;;;;5034690;28;20029;-71
2022/01/07 06:07:40;;;;;;;62.25;34.08;;;2.00;99.90;;;;;;5034593;28;20057;-71
2022/01/07 06:10:07;;;;;;;63.30;31.45;;;2.00;99.90;;;;;;5034496;28;20030;-71
2022/01/07 06:12:33;;;;;;;58.35;32.25;;;2.10;99.90;;;;;;5034534;28;20036;-71
2022/01/07 06:14:59;;;;;;;63.78;31.65;;;2.10;99.90;;;;;;5034491;28;20022;-70
2022/01/07 06:17:25;;;;;;;61.85;31.20;;;2.10;99.90;;;;;;5034411;28;20038;-71
2022/01/07 06:19:50;;;;;;;66.25;33.00;;;2.10;99.90;;;;;;5034425;28;20404;-69
2022/01/07 06:22:16;;;;;;;64.07;32.83;;;2.10;99.90;;;;;;5057741;23;20056;-75
2022/01/07 06:24:42;;;;;;;59.60;33.17;;;2.00;99.90;;;;;;5034332;28;20022;-76
2022/01/07 06:27:08;;;;;;;63.80;29.35;;;2.00;99.90;;;;;;5034204;28;20101;-76
2022/01/07 06:29:33;;;;;;;67.68;31.73;;;2.00;99.90;;;;;;5034192;28;20107;-75
2022/01/07 06:31:59;;;;;;;60.38;30.60;;;2.00;99.90;;;;;;5049204;28;20036;-76
2022/01/07 06:34:24;;;;;;;64.13;30.17;;;2.00;99.90;;;;;;5054277;28;20029;-76
2022/01/07 06:36:51;;;;;;;57.88;31.30;;;2.00;99.90;;;;;;5053974;28;20021;-76
2022/01/07 06:39:22;;;;;;;69.97;31.65;;;2.00;99.90;;;;;;5054002;28;20056;-76
2022/01/07 06:41:48;;;;;;;53.50;31.13;;;2.00;99.90;;;;;;5054224;28;20025;-76
2022/01/07 06:44:14;;;;;;;68.80;32.08;;;2.00;99.90;;;;;;5053828;28;20027;-76
2022/01/07 06:46:40;;;;;;;64.93;31.35;;;2.00;99.90;;;;;;5054096;28;20035;-76
2022/01/07 06:49:05;;;;;;;63.58;31.23;;;2.10;99.90;;;;;;5053719;28;20033;-76
2022/01/07 06:51:31;;;;;;;58.38;31.10;;;2.10;99.90;;;;;;5053679;28;20049;-76
2022/01/07 06:53:58;;;;;;;60.25;31.45;;;2.10;99.90;;;;;;5053766;28;20433;-76
2022/01/07 06:56:24;;;;;;;49.85;29.95;;;2.10;99.90;;;;;;5053872;28;20468;-76
2022/01/07 06:58:49;;;;;;;66.05;32.75;;;2.10;99.90;;;;;;5053648;28;20028;-76
2022/01/07 07:01:15;;;;;;;67.80;33.58;;;2.00;99.90;;;;;;5053532;28;20058;-76
2022/01/07 07:03:41;;;;;;;51.13;32.15;;;2.10;99.90;;;;;;5053561;28;20119;-75
2022/01/07 07:06:07;;;;;;;61.45;32.10;;;2.10;99.90;;;;;;5053768;28;20103;-77
2022/01/07 07:08:33;;;;;;;67.13;32.38;;;2.10;99.90;;;;;;5053455;28;20021;-76
2022/01/07 07:10:58;;;;;;;58.90;33.65;;;2.10;99.90;;;;;;5053346;28;20500;-76
2022/01/07 07:13:24;;;;;;;72.68;31.98;;;2.10;99.90;;;;;;5053346;28;20575;-76
2022/01/07 07:15:50;;;;;;;62.20;31.60;;;2.10;99.90;;;;;;5053742;28;20076;-76
2022/01/07 07:18:17;;;;;;;69.28;35.33;;;2.10;99.90;;;;;;5053017;28;20025;-76
2022/01/07 07:20:43;;;;;;;74.07;33.83;;;2.10;99.90;;;;;;5053291;28;20025;-76
2022/01/07 07:23:08;;;;;;;68.32;34.20;;;2.10;99.90;;;;;;5053784;28;20040;-76
2022/01/07 07:25:34;;;;;;;66.70;34.13;;;2.10;99.90;;;;;;5053540;28;20392;-76
2022/01/07 07:27:59;;;;;;;64.32;36.50;;;2.20;99.90;;;;;;5053118;28;20071;-76
2022/01/07 07:30:32;;;;;;;62.75;34.17;;;2.20;99.90;;;;;;5053097;28;20417;-75
2022/01/07 07:33:07;;;;;;;72.32;34.63;;;2.20;99.90;;;;;;5053483;28;20104;-76
2022/01/07 07:38:16;;;;;;;65.07;35.70;;;2.20;99.90;;;;;;5033544;28;20032;-76
2022/01/07 07:40:42;;;;;;;62.78;32.72;;;2.30;99.90;;;;;;5033062;28;20029;-76
2022/01/07 07:43:08;;;;;;;67.72;32.95;;;2.30;99.90;;;;;;5044589;28;20396;-76
2022/01/07 07:45:33;;;;;;;66.53;32.88;;;2.40;99.90;;;;;;5051822;28;20082;-76
2022/01/07 07:47:59;;;;;;;62.50;30.63;;;2.40;99.90;;;;;;5052899;28;20033;-76
2022/01/07 07:50:24;;;;;;;67.50;31.08;;;2.40;99.90;;;;;;5053017;28;20100;-76
2022/01/07 07:52:50;;;;;;;52.38;30.27;;;2.50;99.90;;;;;;5052930;28;20051;-76
2022/01/07 07:55:15;;;;;;;60.25;30.85;;;2.50;99.90;;;;;;5053508;28;20037;-76
2022/01/07 07:57:41;;;;;;;67.57;28.67;;;2.50;99.90;;;;;;5052903;28;20025;-76
2022/01/07 08:00:07;;;;;;;60.15;30.45;;;2.50;99.90;;;;;;5052876;28;20025;-76
2022/01/07 08:02:34;;;;;;;60.95;30.20;;;2.50;99.90;;;;;;5053098;28;20017;-76
2022/01/07 08:05:00;;;;;;;64.05;29.02;;;2.60;99.90;;;;;;5053094;28;20021;-75
2022/01/07 08:07:25;;;;;;;57.38;29.10;;;2.60;99.90;;;;;;5052773;28;20052;-76
2022/01/07 08:09:52;;;;;;;65.65;31.05;;;2.60;99.90;;;;;;5053334;28;20096;-76
2022/01/07 08:12:50;;;;;;;70.78;30.77;;;2.60;99.90;;;;;;5052780;28;20017;-76
2022/01/07 08:17:49;;;;;;;53.67;27.23;;;2.60;99.90;;;;;;5053012;28;20110;-75
2022/01/07 08:20:14;;;;;;;78.70;30.05;;;2.70;99.90;;;;;;5052780;28;20037;-75
2022/01/07 08:22:41;;;;;;;54.05;29.60;;;2.80;99.90;;;;;;5051779;28;20053;-75
2022/01/07 08:25:07;;;;;;;66.18;26.33;;;2.80;99.90;;;;;;5052914;28;20104;-76
2022/01/07 08:27:32;;;;;;;64.38;27.05;;;2.80;99.90;;;;;;5052805;28;20025;-76
2022/01/07 08:30:02;;;;;;;53.22;27.30;;;2.80;99.90;;;;;;5052911;28;20519;-75
2022/01/07 08:35:12;;;;;;;;;;;2.80;99.90;;;;;;5053113;28;20036;-76
2022/01/07 08:37:37;;;;;;;62.42;28.27;;;2.80;99.90;;;;;;5051289;28;20322;-76
2022/01/07 08:40:03;;;;;;;63.58;27.10;;;2.90;99.90;;;;;;5052549;28;20024;-76
2022/01/07 08:42:29;;;;;;;64.45;29.83;;;3.00;99.90;;;;;;5052348;28;20029;-76
2022/01/07 08:44:55;;;;;;;82.45;30.83;;;3.00;99.90;;;;;;5052422;28;20082;-76
2022/01/07 08:47:23;;;;;;;63.10;29.45;;;3.00;99.90;;;;;;5050885;28;20036;-76
2022/01/07 08:49:50;;;;;;;70.85;29.00;;;3.00;99.90;;;;;;5052732;28;20024;-76
2022/01/07 08:52:16;;;;;;;71.78;29.33;;;3.10;99.90;;;;;;5052377;28;20484;-76
2022/01/07 08:54:42;;;;;;;59.95;28.45;;;3.00;99.90;;;;;;5052428;28;20096;-76
2022/01/07 08:57:07;;;;;;;62.50;29.02;;;3.00;99.90;;;;;;5054151;28;20110;-76
2022/01/07 08:59:33;;;;;;;69.82;29.00;;;3.10;99.90;;;;;;5055882;28;20021;-76
2022/01/07 09:01:58;;;;;;;68.70;29.23;;;3.10;99.90;;;;;;5055810;28;20159;-76
2022/01/07 09:04:24;;;;;;;75.03;31.45;;;3.10;99.90;;;;;;5055937;28;20495;-76
2022/01/07 09:06:50;;;;;;;72.43;30.25;;;3.10;99.90;;;;;;5056070;28;20443;-76
2022/01/07 09:09:15;;;;;;;61.25;29.27;;;3.10;99.90;;;;;;5055660;28;20029;-76
2022/01/07 09:11:41;;;;;;;70.10;28.92;;;3.10;99.90;;;;;;5055618;28;20017;-76
2022/01/07 09:14:06;;;;;;;60.47;29.05;;;3.20;99.90;;;;;;5055683;28;20025;-76
2022/01/07 09:16:32;;;;;;;51.58;27.95;;;3.20;99.90;;;;;;5055563;28;20079;-76
2022/01/07 09:19:00;;;;;;;70.18;31.05;;;3.20;99.90;;;;;;5055647;28;20027;-76
2022/01/07 09:21:26;;;;;;;65.82;29.05;;;3.20;99.90;;;;;;5055240;28;20107;-76
2022/01/07 09:23:51;;;;;;;62.03;28.15;;;3.30;99.90;;;;;;5055451;28;20560;-76
2022/01/07 09:26:17;;;;;;;64.18;27.13;;;3.30;99.90;;;;;;5055967;28;20068;-76
2022/01/07 09:28:43;;;;;;;67.50;28.33;;;3.30;99.90;;;;;;5054842;28;20107;-76
2022/01/07 09:31:08;;;;;;;59.33;28.38;;;3.30;99.90;;;;;;5055275;28;20036;-76
2022/01/07 09:33:34;;;;;;;72.95;28.23;;;3.30;99.90;;;;;;5055264;28;20021;-75
2022/01/07 09:35:59;;;;;;;53.92;27.40;;;3.30;99.90;;;;;;5055225;28;20520;-75
2022/01/07 09:38:26;;;;;;;53.67;27.10;;;3.30;99.90;;;;;;5051858;28;20112;-76
2022/01/07 09:40:51;;;;;;;71.40;29.85;;;3.30;99.90;;;;;;5055092;28;20057;-76
2022/01/07 09:43:17;;;;;;;63.00;27.98;;;3.30;99.90;;;;;;5055078;28;20033;-75
2022/01/07 09:45:43;;;;;;;62.20;26.88;;;3.30;99.90;;;;;;5055004;28;20025;-75
2022/01/07 09:48:08;;;;;;;64.90;26.38;;;3.30;99.90;;;;;;5054969;28;20033;-76
2022/01/07 09:50:36;;;;;;;48.28;26.08;;;3.30;99.90;;;;;;5055168;28;20025;-75
2022/01/07 09:53:08;;;;;;;49.40;25.70;;;3.30;99.90;;;;;;5053657;28;20067;-75
2022/01/07 09:55:34;;;;;;;59.60;27.67;;;3.30;99.90;;;;;;5055016;28;20021;-75
2022/01/07 09:58:01;;;;;;;63.95;27.10;;;3.40;99.90;;;;;;5055134;28;20017;-75
2022/01/07 10:00:37;;;;;;;55.80;27.40;;;3.30;99.90;;;;;;5054830;28;20067;-77
2022/01/07 10:03:08;;;;;;;54.40;26.65;;;3.40;99.90;;;;;;5054697;28;20031;-77
2022/01/07 10:05:45;;;;;;;56.63;27.38;;;3.40;99.90;;;;;;5053058;28;20036;-75
2022/01/07 10:08:24;;;;;;;58.83;26.48;;;3.40;99.90;;;;;;5054270;28;20541;-75
2022/01/07 10:11:14;;;;;;;57.80;27.98;;;3.30;99.90;;;;;;5053227;28;20021;-76
2022/01/07 10:13:40;;;;;;;61.08;28.88;;;3.40;99.90;;;;;;5054878;28;20017;-75
2022/01/07 10:16:23;;;;;;;61.90;26.70;;;3.40;99.90;;;;;;5053223;28;20025;-75
2022/01/07 10:18:49;;;;;;;61.92;28.60;;;3.50;99.90;;;;;;5054501;28;20033;-76
2022/01/07 10:21:17;;;;;;;64.60;27.45;;;3.50;99.90;;;;;;5054135;28;20036;-77
2022/01/07 10:23:46;;;;;;;57.55;27.83;;;3.50;99.90;;;;;;5054576;28;20020;-76
2022/01/07 10:26:15;;;;;;;58.30;28.70;;;3.50;99.90;;;;;;5054240;28;20074;-76
2022/01/07 10:28:41;;;;;;;54.50;24.92;;;3.60;99.90;;;;;;5052884;28;20502;-76
2022/01/07 10:31:08;;;;;;;56.13;26.48;;;3.60;99.90;;;;;;5054079;28;20063;-76
2022/01/07 10:33:39;;;;;;;66.82;27.23;;;3.60;99.90;;;;;;5054110;28;20021;-76
2022/01/07 10:36:08;;;;;;;62.60;26.92;;;3.60;99.90;;;;;;5054181;28;20025;-76
2022/01/07 10:38:53;;;;;;;56.40;27.42;;;3.60;99.90;;;;;;5054115;28;20025;-76
2022/01/07 10:41:19;;;;;;;55.35;26.60;;;3.70;99.90;;;;;;5052689;28;20032;-76
2022/01/07 10:43:46;;;;;;;72.95;28.08;;;3.80;99.90;;;;;;5053954;28;20025;-75
2022/01/07 10:46:19;;;;;;;64.25;27.83;;;3.70;99.90;;;;;;5053907;28;20025;-75
2022/01/07 10:48:53;;;;;;;63.95;26.58;;;3.80;99.90;;;;;;5053798;28;20078;-75
2022/01/07 10:51:27;;;;;;;66.65;26.25;;;3.90;99.90;;;;;;5053149;28;20025;-75
2022/01/07 10:53:57;;;;;;;60.65;27.98;;;3.90;99.90;;;;;;5053553;28;20025;-76
2022/01/07 10:56:35;;;;;;;53.35;25.83;;;4.00;99.90;;;;;;5054829;28;20029;-75
2022/01/07 10:59:12;;;;;;;54.47;24.85;;;4.00;99.90;;;;;;5054083;28;20492;-76
2022/01/07 11:01:45;;;;;;;51.90;24.98;;;4.10;99.90;;;;;;5053888;28;20106;-75
2022/01/07 11:04:14;;;;;;;58.35;26.55;;;4.10;99.90;;;;;;5053784;28;20111;-76
2022/01/07 11:06:40;;;;;;;76.07;25.58;;;4.10;99.90;;;;;;5053873;28;20056;-76
2022/01/07 11:09:09;;;;;;;48.05;24.83;;;4.10;99.90;;;;;;5053339;28;20447;-76
2022/01/07 11:11:39;;;;;;;69.45;25.52;;;4.20;99.90;;;;;;5052719;28;20106;-75
2022/01/07 11:14:08;;;;;;;46.58;22.52;;;4.20;99.90;;;;;;5053767;28;20017;-75
2022/01/07 11:16:36;;;;;;;52.42;22.92;;;4.20;99.90;;;;;;5054103;28;20025;-77
2022/01/07 11:19:03;;;;;;;51.10;22.88;;;4.20;99.90;;;;;;5052826;28;20045;-77
2022/01/07 11:21:29;;;;;;;50.33;21.75;;;4.30;99.90;;;;;;5052029;28;20447;-77
2022/01/07 11:23:55;;;;;;;55.03;22.67;;;4.30;99.90;;;;;;5054041;28;20024;-76
2022/01/07 11:26:21;;;;;;;54.90;23.55;;;4.30;99.90;;;;;;5053263;28;20025;-77
2022/01/07 11:28:57;;;;;;;58.75;21.75;;;4.30;99.90;;;;;;5051659;28;20052;-77
2022/01/07 11:31:23;;;;;;;44.50;20.60;;;4.40;99.90;;;;;;5049812;28;20080;-76
2022/01/07 11:34:22;;;;;;;50.97;20.10;;;4.40;99.90;;;;;;5053335;28;20017;-76
2022/01/07 11:36:47;;;;;;;48.63;18.48;;;4.40;99.90;;;;;;5053269;28;20021;-76
2022/01/07 11:39:14;;;;;;;52.88;18.67;;;4.40;99.90;;;;;;5053130;28;20029;-76
2022/01/07 11:41:44;;;;;;;49.05;17.52;;;4.50;99.90;;;;;;5053055;28;20029;-76
2022/01/07 11:44:20;;;;;;;51.83;17.42;;;4.50;99.90;;;;;;5053035;28;20147;-76
2022/01/07 11:46:45;;;;;;;52.17;17.48;;;4.50;99.90;;;;;;5053388;28;20082;-76
2022/01/07 11:49:32;;;;;;;71.70;16.02;;;4.50;99.90;;;;;;5052983;28;20037;-76
2022/01/07 11:51:58;;;;;;;47.85;15.57;;;4.60;99.90;;;;;;5052921;28;20021;-76
2022/01/07 11:54:23;;;;;;;45.85;17.55;;;4.70;99.90;;;;;;5051754;28;20024;-76
2022/01/07 11:56:49;;;;;;;53.10;16.73;;;4.70;99.90;;;;;;5052931;28;20021;-76
2022/01/07 11:59:20;;;;;;;47.13;14.93;;;4.80;99.90;;;;;;5052889;28;20036;-76
2022/01/07 12:02:03;;;;;;;35.47;15.93;;;4.80;99.90;;;;;;5051627;28;20166;-76
2022/01/07 12:04:30;;;;;;;40.17;15.23;;;4.80;99.90;;;;;;5052998;28;20108;-76
2022/01/07 12:06:59;;;;;;;41.78;14.10;;;4.80;99.90;;;;;;5052930;28;20032;-76
2022/01/07 12:09:33;;;;;;;48.03;13.63;;;4.70;99.90;;;;;;5053128;28;20037;-76
2022/01/07 12:12:07;;;;;;;40.97;14.45;;;4.70;99.90;;;;;;5051489;28;20025;-76
2022/01/07 12:14:37;;;;;;;51.08;14.52;;;4.80;99.90;;;;;;5052973;28;20492;-76
2022/01/07 12:17:05;;;;;;;46.28;13.35;;;4.80;99.90;;;;;;5053323;28;20029;-76
2022/01/07 12:19:37;;;;;;;39.65;14.98;;;4.90;99.90;;;;;;5052767;28;20094;-76
2022/01/07 12:22:08;;;;;;;49.28;14.80;;;4.90;99.90;;;;;;5087820;22;20130;-70
2022/01/07 12:24:33;;;;;;;30.17;13.35;;;4.90;99.90;;;;;;5013149;28;20021;-70
2022/01/07 12:27:07;;;;;;;53.33;14.40;;;4.90;99.90;;;;;;5012981;28;20026;-70
2022/01/07 12:29:36;;;;;;;43.45;14.77;;;4.90;99.90;;;;;;5012572;28;20037;-70
2022/01/07 12:32:04;;;;;;;56.90;16.48;;;4.80;99.90;;;;;;5026680;28;20029;-70
2022/01/07 12:34:35;;;;;;;50.83;14.07;;;4.80;99.90;;;;;;5036472;28;20041;-70
2022/01/07 12:37:03;;;;;;;44.25;13.60;;;4.80;99.90;;;;;;5036757;28;20372;-70
2022/01/07 12:39:32;;;;;;;65.72;15.02;;;4.80;99.90;;;;;;5036278;28;20489;-70
2022/01/07 12:41:58;;;;;;;44.53;13.60;;;4.80;99.90;;;;;;5036233;28;20481;-70
2022/01/07 12:44:24;;;;;;;40.92;13.75;;;4.80;99.90;;;;;;5036562;28;20037;-70
2022/01/07 12:46:59;;;;;;;59.85;15.15;;;4.80;99.90;;;;;;5036285;28;20033;-70